sensor_id;sensor_type;location;lat;lon;timestamp;temperature;humidity
14737;DHT22;7459;53.590;10.062;2024-03-23T00:53:51;7.70;99.90
14737;DHT22;7459;53.590;10.062;2024-03-23T00:56:17;7.70;99.90
14737;DHT22;7459;53.590;10.062;2024-03-23T00:58:43;7.70;99.90
14737;DHT22;7459;53.590;10.062;2024-03-23T01:01:08;7.70;99.90
14737;DHT22;7459;53.590;10.062;2024-03-23T01:03:34;7.70;99.90
14737;DHT22;7459;53.590;10.062;2024-03-23T01:06:00;7.70;99.90
14737;DHT22;7459;53.590;10.062;2024-03-23T01:08:28;7.70;99.90
14737;DHT22;7459;53.590;10.062;2024-03-23T01:10:59;7.60;99.90
14737;DHT22;7459;53.590;10.062;2024-03-23T01:13:26;7.60;99.90
14737;DHT22;7459;53.590;10.062;2024-03-23T01:15:53;7.60;99.90
14737;DHT22;7459;53.590;10.062;2024-03-23T01:18:20;7.60;99.90
14737;DHT22;7459;53.590;10.062;2024-03-23T01:20:46;7.50;99.90
14737;DHT22;7459;53.590;10.062;2024-03-23T01:23:13;7.60;99.90
14737;DHT22;7459;53.590;10.062;2024-03-23T01:25:39;7.60;99.90
14737;DHT22;7459;53.590;10.062;2024-03-23T01:28:05;7.60;99.90
14737;DHT22;7459;53.590;10.062;2024-03-23T01:30:35;7.60;99.90
14737;DHT22;7459;53.590;10.062;2024-03-23T01:33:01;7.60;99.90
14737;DHT22;7459;53.590;10.062;2024-03-23T01:35:30;7.50;99.90
14737;DHT22;7459;53.590;10.062;2024-03-23T01:37:56;7.60;99.90
14737;DHT22;7459;53.590;10.062;2024-03-23T01:40:22;7.50;99.90
14737;DHT22;7459;53.590;10.062;2024-03-23T01:42:57;7.50;99.90
14737;DHT22;7459;53.590;10.062;2024-03-23T01:45:23;7.50;99.90
14737;DHT22;7459;53.590;10.062;2024-03-23T01:47:50;7.40;99.90
14737;DHT22;7459;53.590;10.062;2024-03-23T01:50:18;7.50;99.90
14737;DHT22;7459;53.590;10.062;2024-03-23T01:52:44;7.40;99.90
14737;DHT22;7459;53.590;10.062;2024-03-23T01:55:10;7.40;99.90
14737;DHT22;7459;53.590;10.062;2024-03-23T01:57:36;7.40;99.90
14737;DHT22;7459;53.590;10.062;2024-03-23T02:00:02;7.40;99.90
14737;DHT22;7459;53.590;10.062;2024-03-23T02:02:42;7.40;99.90
14737;DHT22;7459;53.590;10.062;2024-03-23T02:05:13;7.40;99.90
14737;DHT22;7459;53.590;10.062;2024-03-23T02:07:40;7.50;99.90
14737;DHT22;7459;53.590;10.062;2024-03-23T02:10:09;7.40;99.90
14737;DHT22;7459;53.590;10.062;2024-03-23T02:12:36;7.40;99.90
14737;DHT22;7459;53.590;10.062;2024-03-23T02:15:02;7.40;99.90
14737;DHT22;7459;53.590;10.062;2024-03-23T02:17:30;7.40;99.90
14737;DHT22;7459;53.590;10.062;2024-03-23T02:19:58;7.40;99.90
14737;DHT22;7459;53.590;10.062;2024-03-23T02:22:24;7.30;99.90
14737;DHT22;7459;53.590;10.062;2024-03-23T02:24:49;7.30;99.90
14737;DHT22;7459;53.590;10.062;2024-03-23T02:27:15;7.40;99.90
14737;DHT22;7459;53.590;10.062;2024-03-23T02:29:41;7.30;99.90
14737;DHT22;7459;53.590;10.062;2024-03-23T02:32:06;7.30;99.90
14737;DHT22;7459;53.590;10.062;2024-03-23T02:34:34;7.30;99.90
14737;DHT22;7459;53.590;10.062;2024-03-23T02:37:00;7.30;99.90
14737;DHT22;7459;53.590;10.062;2024-03-23T02:39:26;7.30;99.90
14737;DHT22;7459;53.590;10.062;2024-03-23T02:41:52;7.30;99.90
14737;DHT22;7459;53.590;10.062;2024-03-23T02:44:17;7.30;99.90
14737;DHT22;7459;53.590;10.062;2024-03-23T02:46:43;7.20;99.90
14737;DHT22;7459;53.590;10.062;2024-03-23T02:49:09;7.30;99.90
14737;DHT22;7459;53.590;10.062;2024-03-23T02:51:34;7.30;99.90
14737;DHT22;7459;53.590;10.062;2024-03-23T02:54:00;7.20;99.90
14737;DHT22;7459;53.590;10.062;2024-03-23T02:56:26;7.30;99.90
14737;DHT22;7459;53.590;10.062;2024-03-23T02:58:51;7.20;99.90
14737;DHT22;7459;53.590;10.062;2024-03-23T03:04:01;7.20;99.90
14737;DHT22;7459;53.590;10.062;2024-03-23T03:06:27;7.20;99.90
14737;DHT22;7459;53.590;10.062;2024-03-23T03:08:53;7.20;99.90
14737;DHT22;7459;53.590;10.062;2024-03-23T03:11:19;7.20;99.90
14737;DHT22;7459;53.590;10.062;2024-03-23T03:13:45;7.10;99.90
14737;DHT22;7459;53.590;10.062;2024-03-23T03:16:11;7.10;99.90
14737;DHT22;7459;53.590;10.062;2024-03-23T03:18:37;7.10;99.90
14737;DHT22;7459;53.590;10.062;2024-03-23T03:21:04;7.10;99.90
14737;DHT22;7459;53.590;10.062;2024-03-23T03:23:31;7.10;99.90
14737;DHT22;7459;53.590;10.062;2024-03-23T03:25:57;7.00;99.90
14737;DHT22;7459;53.590;10.062;2024-03-23T03:28:23;7.00;99.90
14737;DHT22;7459;53.590;10.062;2024-03-23T03:30:49;7.10;99.90
14737;DHT22;7459;53.590;10.062;2024-03-23T03:33:14;7.10;99.90
14737;DHT22;7459;53.590;10.062;2024-03-23T03:35:40;7.00;99.90
14737;DHT22;7459;53.590;10.062;2024-03-23T03:38:06;7.00;99.90
14737;DHT22;7459;53.590;10.062;2024-03-23T03:40:31;7.00;99.90
14737;DHT22;7459;53.590;10.062;2024-03-23T03:42:57;6.90;99.90
14737;DHT22;7459;53.590;10.062;2024-03-23T03:45:23;6.90;99.90
14737;DHT22;7459;53.590;10.062;2024-03-23T03:47:48;6.90;99.90
14737;DHT22;7459;53.590;10.062;2024-03-23T03:50:14;7.00;99.90
14737;DHT22;7459;53.590;10.062;2024-03-23T03:52:40;7.00;99.90
14737;DHT22;7459;53.590;10.062;2024-03-23T03:55:12;6.90;99.90
14737;DHT22;7459;53.590;10.062;2024-03-23T03:57:39;6.90;99.90
14737;DHT22;7459;53.590;10.062;2024-03-23T04:00:06;6.90;99.90
14737;DHT22;7459;53.590;10.062;2024-03-23T04:02:32;6.90;99.90
14737;DHT22;7459;53.590;10.062;2024-03-23T04:04:58;6.90;99.90
14737;DHT22;7459;53.590;10.062;2024-03-23T04:07:23;6.90;99.90
14737;DHT22;7459;53.590;10.062;2024-03-23T04:09:49;6.80;99.90
14737;DHT22;7459;53.590;10.062;2024-03-23T04:12:15;6.90;99.90
14737;DHT22;7459;53.590;10.062;2024-03-23T04:14:41;6.90;99.90
14737;DHT22;7459;53.590;10.062;2024-03-23T04:17:07;6.90;99.90
14737;DHT22;7459;53.590;10.062;2024-03-23T04:19:33;6.90;99.90
14737;DHT22;7459;53.590;10.062;2024-03-23T04:21:58;6.90;99.90
14737;DHT22;7459;53.590;10.062;2024-03-23T04:24:24;6.90;99.90
14737;DHT22;7459;53.590;10.062;2024-03-23T04:26:51;6.90;99.90
14737;DHT22;7459;53.590;10.062;2024-03-23T04:29:17;6.90;99.90
14737;DHT22;7459;53.590;10.062;2024-03-23T04:31:42;6.90;99.90
14737;DHT22;7459;53.590;10.062;2024-03-23T04:34:08;6.90;99.90
14737;DHT22;7459;53.590;10.062;2024-03-23T04:36:34;6.80;99.90
14737;DHT22;7459;53.590;10.062;2024-03-23T04:39:00;6.80;99.90
14737;DHT22;7459;53.590;10.062;2024-03-23T04:41:26;6.90;99.90
14737;DHT22;7459;53.590;10.062;2024-03-23T04:43:52;6.80;99.90
14737;DHT22;7459;53.590;10.062;2024-03-23T04:46:17;6.80;99.90
14737;DHT22;7459;53.590;10.062;2024-03-23T04:48:43;6.80;99.90
14737;DHT22;7459;53.590;10.062;2024-03-23T04:51:10;6.80;99.90
14737;DHT22;7459;53.590;10.062;2024-03-23T04:53:38;6.80;99.90
14737;DHT22;7459;53.590;10.062;2024-03-23T04:56:03;6.80;99.90
14737;DHT22;7459;53.590;10.062;2024-03-23T04:58:29;6.70;99.90
14737;DHT22;7459;53.590;10.062;2024-03-23T05:00:56;6.80;99.90
14737;DHT22;7459;53.590;10.062;2024-03-23T05:03:22;6.80;99.90
14737;DHT22;7459;53.590;10.062;2024-03-23T05:05:48;6.80;99.90
14737;DHT22;7459;53.590;10.062;2024-03-23T05:08:15;6.70;99.90
14737;DHT22;7459;53.590;10.062;2024-03-23T05:10:42;6.80;99.90
14737;DHT22;7459;53.590;10.062;2024-03-23T05:13:08;6.70;99.90
14737;DHT22;7459;53.590;10.062;2024-03-23T05:15:34;6.70;99.90
14737;DHT22;7459;53.590;10.062;2024-03-23T05:18:00;6.70;99.90
14737;DHT22;7459;53.590;10.062;2024-03-23T05:20:26;6.80;99.90
14737;DHT22;7459;53.590;10.062;2024-03-23T05:22:53;6.70;99.90
14737;DHT22;7459;53.590;10.062;2024-03-23T05:25:19;6.70;99.90
14737;DHT22;7459;53.590;10.062;2024-03-23T05:27:45;6.70;99.90
14737;DHT22;7459;53.590;10.062;2024-03-23T05:30:11;6.70;99.90
14737;DHT22;7459;53.590;10.062;2024-03-23T05:32:37;6.60;99.90
14737;DHT22;7459;53.590;10.062;2024-03-23T05:35:09;6.60;99.90
14737;DHT22;7459;53.590;10.062;2024-03-23T05:37:35;6.60;99.90
14737;DHT22;7459;53.590;10.062;2024-03-23T05:40:01;6.60;99.90
14737;DHT22;7459;53.590;10.062;2024-03-23T05:42:28;6.60;99.90
14737;DHT22;7459;53.590;10.062;2024-03-23T05:44:54;6.70;99.90
14737;DHT22;7459;53.590;10.062;2024-03-23T05:47:20;6.70;99.90
14737;DHT22;7459;53.590;10.062;2024-03-23T05:49:46;6.70;99.90
14737;DHT22;7459;53.590;10.062;2024-03-23T05:52:13;6.80;99.90
14737;DHT22;7459;53.590;10.062;2024-03-23T05:54:39;6.70;99.90
14737;DHT22;7459;53.590;10.062;2024-03-23T05:57:05;6.80;99.90
14737;DHT22;7459;53.590;10.062;2024-03-23T05:59:33;6.80;99.90
14737;DHT22;7459;53.590;10.062;2024-03-23T06:01:58;6.80;99.90
14737;DHT22;7459;53.590;10.062;2024-03-23T06:04:24;6.70;99.90
14737;DHT22;7459;53.590;10.062;2024-03-23T06:06:51;6.80;99.90
14737;DHT22;7459;53.590;10.062;2024-03-23T06:09:19;6.80;99.90
14737;DHT22;7459;53.590;10.062;2024-03-23T06:11:45;6.70;99.90
14737;DHT22;7459;53.590;10.062;2024-03-23T06:14:11;6.70;99.90
14737;DHT22;7459;53.590;10.062;2024-03-23T06:16:37;6.70;99.90
14737;DHT22;7459;53.590;10.062;2024-03-23T06:19:03;6.70;99.90
14737;DHT22;7459;53.590;10.062;2024-03-23T06:21:30;6.80;99.90
14737;DHT22;7459;53.590;10.062;2024-03-23T06:23:55;6.70;99.90
14737;DHT22;7459;53.590;10.062;2024-03-23T06:26:21;6.80;99.90
14737;DHT22;7459;53.590;10.062;2024-03-23T06:28:47;6.70;99.90
14737;DHT22;7459;53.590;10.062;2024-03-23T06:31:13;6.80;99.90
14737;DHT22;7459;53.590;10.062;2024-03-23T06:33:39;6.80;99.90
14737;DHT22;7459;53.590;10.062;2024-03-23T06:36:07;6.80;99.90
14737;DHT22;7459;53.590;10.062;2024-03-23T06:38:34;6.80;99.90
14737;DHT22;7459;53.590;10.062;2024-03-23T06:41:02;6.80;99.90
14737;DHT22;7459;53.590;10.062;2024-03-23T06:43:28;6.90;99.90
14737;DHT22;7459;53.590;10.062;2024-03-23T06:45:54;6.90;99.90
14737;DHT22;7459;53.590;10.062;2024-03-23T06:48:20;6.90;99.90
14737;DHT22;7459;53.590;10.062;2024-03-23T06:50:47;6.90;99.90
14737;DHT22;7459;53.590;10.062;2024-03-23T06:53:13;6.90;99.90
14737;DHT22;7459;53.590;10.062;2024-03-23T06:55:39;6.90;99.90
14737;DHT22;7459;53.590;10.062;2024-03-23T06:58:05;6.90;99.90
14737;DHT22;7459;53.590;10.062;2024-03-23T07:00:31;6.90;99.90
14737;DHT22;7459;53.590;10.062;2024-03-23T07:02:57;6.90;99.90
14737;DHT22;7459;53.590;10.062;2024-03-23T07:05:23;6.90;99.90
14737;DHT22;7459;53.590;10.062;2024-03-23T07:07:50;6.90;99.90
14737;DHT22;7459;53.590;10.062;2024-03-23T07:10:16;6.90;99.90
14737;DHT22;7459;53.590;10.062;2024-03-23T07:12:43;7.00;99.90
14737;DHT22;7459;53.590;10.062;2024-03-23T07:15:09;6.90;99.90
14737;DHT22;7459;53.590;10.062;2024-03-23T07:17:34;7.00;99.90
14737;DHT22;7459;53.590;10.062;2024-03-23T07:20:03;7.00;99.90
14737;DHT22;7459;53.590;10.062;2024-03-23T07:22:32;7.00;99.90
14737;DHT22;7459;53.590;10.062;2024-03-23T07:25:01;7.10;99.90
14737;DHT22;7459;53.590;10.062;2024-03-23T07:27:27;7.10;99.90
14737;DHT22;7459;53.590;10.062;2024-03-23T07:29:53;7.10;99.90
14737;DHT22;7459;53.590;10.062;2024-03-23T07:32:19;7.10;99.90
14737;DHT22;7459;53.590;10.062;2024-03-23T07:34:44;7.10;99.90
14737;DHT22;7459;53.590;10.062;2024-03-23T07:37:10;7.10;99.90
14737;DHT22;7459;53.590;10.062;2024-03-23T07:39:36;7.10;99.90
14737;DHT22;7459;53.590;10.062;2024-03-23T07:42:02;7.10;99.90
14737;DHT22;7459;53.590;10.062;2024-03-23T07:44:28;7.10;99.90
14737;DHT22;7459;53.590;10.062;2024-03-23T07:46:54;7.10;99.90
14737;DHT22;7459;53.590;10.062;2024-03-23T07:49:19;7.20;99.90
14737;DHT22;7459;53.590;10.062;2024-03-23T07:51:45;7.20;99.90
14737;DHT22;7459;53.590;10.062;2024-03-23T07:54:11;7.20;99.90
14737;DHT22;7459;53.590;10.062;2024-03-23T07:56:36;7.20;99.90
14737;DHT22;7459;53.590;10.062;2024-03-23T07:59:02;7.30;99.90
14737;DHT22;7459;53.590;10.062;2024-03-23T08:01:30;7.30;99.90
14737;DHT22;7459;53.590;10.062;2024-03-23T08:03:56;7.40;99.90
14737;DHT22;7459;53.590;10.062;2024-03-23T08:06:22;7.40;99.90
14737;DHT22;7459;53.590;10.062;2024-03-23T08:08:51;7.40;99.90
14737;DHT22;7459;53.590;10.062;2024-03-23T08:11:25;7.50;99.90
14737;DHT22;7459;53.590;10.062;2024-03-23T08:13:52;7.50;99.90
14737;DHT22;7459;53.590;10.062;2024-03-23T08:16:18;7.50;99.90
14737;DHT22;7459;53.590;10.062;2024-03-23T08:18:44;7.50;99.90
14737;DHT22;7459;53.590;10.062;2024-03-23T08:21:09;7.50;99.90
14737;DHT22;7459;53.590;10.062;2024-03-23T08:23:36;7.50;99.90
14737;DHT22;7459;53.590;10.062;2024-03-23T08:26:11;7.60;99.90
14737;DHT22;7459;53.590;10.062;2024-03-23T08:28:37;7.60;99.90
14737;DHT22;7459;53.590;10.062;2024-03-23T08:31:10;7.60;99.90
14737;DHT22;7459;53.590;10.062;2024-03-23T08:33:37;7.70;99.90
14737;DHT22;7459;53.590;10.062;2024-03-23T08:36:05;7.70;99.90
14737;DHT22;7459;53.590;10.062;2024-03-23T08:38:32;7.80;99.90
14737;DHT22;7459;53.590;10.062;2024-03-23T08:41:05;7.80;99.90
14737;DHT22;7459;53.590;10.062;2024-03-23T08:43:36;7.80;99.90
14737;DHT22;7459;53.590;10.062;2024-03-23T08:46:10;7.90;99.90
14737;DHT22;7459;53.590;10.062;2024-03-23T08:48:39;7.90;99.90
14737;DHT22;7459;53.590;10.062;2024-03-23T08:51:07;7.90;99.90
14737;DHT22;7459;53.590;10.062;2024-03-23T08:53:35;7.90;99.90
14737;DHT22;7459;53.590;10.062;2024-03-23T08:56:02;8.00;99.90
14737;DHT22;7459;53.590;10.062;2024-03-23T08:58:29;8.00;99.90
14737;DHT22;7459;53.590;10.062;2024-03-23T09:00:57;8.10;99.90
14737;DHT22;7459;53.590;10.062;2024-03-23T09:03:28;8.10;99.90
14737;DHT22;7459;53.590;10.062;2024-03-23T09:05:54;8.20;99.90
14737;DHT22;7459;53.590;10.062;2024-03-23T09:08:20;8.20;99.90
14737;DHT22;7459;53.590;10.062;2024-03-23T09:10:47;8.10;99.90
14737;DHT22;7459;53.590;10.062;2024-03-23T09:13:14;8.10;99.90
14737;DHT22;7459;53.590;10.062;2024-03-23T09:15:50;8.20;99.90
14737;DHT22;7459;53.590;10.062;2024-03-23T09:18:17;8.20;99.90
14737;DHT22;7459;53.590;10.062;2024-03-23T09:20:42;8.20;99.90
14737;DHT22;7459;53.590;10.062;2024-03-23T09:23:08;8.20;99.90
14737;DHT22;7459;53.590;10.062;2024-03-23T09:25:38;8.20;99.90
14737;DHT22;7459;53.590;10.062;2024-03-23T09:28:05;8.20;99.90
14737;DHT22;7459;53.590;10.062;2024-03-23T09:30:32;8.20;99.90
14737;DHT22;7459;53.590;10.062;2024-03-23T09:32:58;8.20;99.90
14737;DHT22;7459;53.590;10.062;2024-03-23T09:35:24;8.20;99.90
14737;DHT22;7459;53.590;10.062;2024-03-23T09:37:50;8.20;99.90
14737;DHT22;7459;53.590;10.062;2024-03-23T09:40:16;8.20;99.90
14737;DHT22;7459;53.590;10.062;2024-03-23T09:42:41;8.20;99.90
14737;DHT22;7459;53.590;10.062;2024-03-23T09:45:21;8.30;99.90
14737;DHT22;7459;53.590;10.062;2024-03-23T09:47:49;8.30;99.90
14737;DHT22;7459;53.590;10.062;2024-03-23T09:50:16;8.30;99.90
14737;DHT22;7459;53.590;10.062;2024-03-23T09:52:42;8.30;99.90
14737;DHT22;7459;53.590;10.062;2024-03-23T09:55:08;8.30;99.90
14737;DHT22;7459;53.590;10.062;2024-03-23T09:57:35;8.40;99.90
14737;DHT22;7459;53.590;10.062;2024-03-23T10:00:01;8.40;99.90
14737;DHT22;7459;53.590;10.062;2024-03-23T10:02:28;8.40;99.90
14737;DHT22;7459;53.590;10.062;2024-03-23T10:04:54;8.40;99.90
14737;DHT22;7459;53.590;10.062;2024-03-23T10:07:20;8.40;99.90
14737;DHT22;7459;53.590;10.062;2024-03-23T10:09:47;8.40;99.90
14737;DHT22;7459;53.590;10.062;2024-03-23T10:12:16;8.40;99.90
14737;DHT22;7459;53.590;10.062;2024-03-23T10:14:43;8.40;99.90
14737;DHT22;7459;53.590;10.062;2024-03-23T10:17:19;8.40;99.90
14737;DHT22;7459;53.590;10.062;2024-03-23T10:19:47;8.40;99.90
14737;DHT22;7459;53.590;10.062;2024-03-23T10:22:18;8.40;99.90
14737;DHT22;7459;53.590;10.062;2024-03-23T10:24:45;8.50;99.90
14737;DHT22;7459;53.590;10.062;2024-03-23T10:27:19;8.60;99.90
14737;DHT22;7459;53.590;10.062;2024-03-23T10:29:46;8.60;99.90
14737;DHT22;7459;53.590;10.062;2024-03-23T10:32:14;8.70;99.90
14737;DHT22;7459;53.590;10.062;2024-03-23T10:34:41;8.80;99.90
14737;DHT22;7459;53.590;10.062;2024-03-23T10:37:07;8.80;99.90
14737;DHT22;7459;53.590;10.062;2024-03-23T10:39:35;8.80;99.90
14737;DHT22;7459;53.590;10.062;2024-03-23T10:42:08;8.80;99.90
14737;DHT22;7459;53.590;10.062;2024-03-23T10:44:37;8.80;99.90
14737;DHT22;7459;53.590;10.062;2024-03-23T10:47:04;8.80;99.90
14737;DHT22;7459;53.590;10.062;2024-03-23T10:49:33;8.80;99.90
14737;DHT22;7459;53.590;10.062;2024-03-23T10:52:02;8.70;99.90
14737;DHT22;7459;53.590;10.062;2024-03-23T10:54:30;8.60;99.90
14737;DHT22;7459;53.590;10.062;2024-03-23T10:57:12;8.60;99.90
14737;DHT22;7459;53.590;10.062;2024-03-23T10:59:40;8.60;99.90
14737;DHT22;7459;53.590;10.062;2024-03-23T11:02:18;8.70;99.90
14737;DHT22;7459;53.590;10.062;2024-03-23T11:04:45;8.80;99.90
14737;DHT22;7459;53.590;10.062;2024-03-23T11:07:32;8.80;99.90
14737;DHT22;7459;53.590;10.062;2024-03-23T11:09:59;8.80;99.90
14737;DHT22;7459;53.590;10.062;2024-03-23T11:12:30;8.90;99.90
14737;DHT22;7459;53.590;10.062;2024-03-23T11:17:31;9.10;99.90
14737;DHT22;7459;53.590;10.062;2024-03-23T11:20:01;9.30;99.90
14737;DHT22;7459;53.590;10.062;2024-03-23T11:25:22;9.40;99.90
14737;DHT22;7459;53.590;10.062;2024-03-23T11:27:53;9.50;99.90
14737;DHT22;7459;53.590;10.062;2024-03-23T11:30:21;9.60;99.90
14737;DHT22;7459;53.590;10.062;2024-03-23T11:32:52;9.50;99.90
14737;DHT22;7459;53.590;10.062;2024-03-23T11:35:38;9.60;99.90
14737;DHT22;7459;53.590;10.062;2024-03-23T11:38:12;9.60;99.90
14737;DHT22;7459;53.590;10.062;2024-03-23T11:40:41;9.50;99.90
14737;DHT22;7459;53.590;10.062;2024-03-23T11:43:10;9.50;99.90
14737;DHT22;7459;53.590;10.062;2024-03-23T11:45:48;9.50;99.90
14737;DHT22;7459;53.590;10.062;2024-03-23T11:48:20;9.50;99.90
14737;DHT22;7459;53.590;10.062;2024-03-23T11:50:48;9.60;99.90
14737;DHT22;7459;53.590;10.062;2024-03-23T11:53:22;9.60;99.90
14737;DHT22;7459;53.590;10.062;2024-03-23T11:55:55;9.70;99.90
14737;DHT22;7459;53.590;10.062;2024-03-23T11:58:24;9.80;99.90
14737;DHT22;7459;53.590;10.062;2024-03-23T12:00:51;9.90;99.90
14737;DHT22;7459;53.590;10.062;2024-03-23T12:03:18;9.80;99.90
14737;DHT22;7459;53.590;10.062;2024-03-23T12:05:50;9.70;99.90
14737;DHT22;7459;53.590;10.062;2024-03-23T12:08:24;9.40;99.90
14737;DHT22;7459;53.590;10.062;2024-03-23T12:11:11;9.00;99.90
14737;DHT22;7459;53.590;10.062;2024-03-23T12:13:39;8.60;99.90
14737;DHT22;7459;53.590;10.062;2024-03-23T12:16:14;8.20;99.90
14737;DHT22;7459;53.590;10.062;2024-03-23T12:18:43;7.80;99.90
14737;DHT22;7459;53.590;10.062;2024-03-23T12:21:10;7.60;99.90
14737;DHT22;7459;53.590;10.062;2024-03-23T12:23:38;7.50;99.90
14737;DHT22;7459;53.590;10.062;2024-03-23T12:26:04;7.30;99.90
14737;DHT22;7459;53.590;10.062;2024-03-23T12:28:30;7.30;99.90
14737;DHT22;7459;53.590;10.062;2024-03-23T12:30:56;7.50;99.90
14737;DHT22;7459;53.590;10.062;2024-03-23T12:33:21;7.60;99.90
14737;DHT22;7459;53.590;10.062;2024-03-23T12:35:48;7.80;99.90
14737;DHT22;7459;53.590;10.062;2024-03-23T12:38:14;8.00;99.90
14737;DHT22;7459;53.590;10.062;2024-03-23T12:40:40;8.20;99.90
14737;DHT22;7459;53.590;10.062;2024-03-23T12:43:06;8.20;99.90
14737;DHT22;7459;53.590;10.062;2024-03-23T12:45:33;8.20;99.90
14737;DHT22;7459;53.590;10.062;2024-03-23T12:47:59;8.00;99.90
14737;DHT22;7459;53.590;10.062;2024-03-23T12:50:24;7.90;99.90
14737;DHT22;7459;53.590;10.062;2024-03-23T12:52:50;7.60;99.90
14737;DHT22;7459;53.590;10.062;2024-03-23T12:55:16;7.40;99.90
14737;DHT22;7459;53.590;10.062;2024-03-23T12:57:42;7.20;99.90
14737;DHT22;7459;53.590;10.062;2024-03-23T13:00:08;7.10;99.90
14737;DHT22;7459;53.590;10.062;2024-03-23T13:02:37;7.00;99.90
14737;DHT22;7459;53.590;10.062;2024-03-23T13:05:04;6.90;99.90
14737;DHT22;7459;53.590;10.062;2024-03-23T13:07:30;6.90;99.90
14737;DHT22;7459;53.590;10.062;2024-03-23T13:09:56;6.90;99.90
14737;DHT22;7459;53.590;10.062;2024-03-23T13:12:22;6.80;99.90
14737;DHT22;7459;53.590;10.062;2024-03-23T13:14:48;6.90;99.90
14737;DHT22;7459;53.590;10.062;2024-03-23T13:17:14;6.80;99.90
14737;DHT22;7459;53.590;10.062;2024-03-23T13:19:40;6.90;99.90
14737;DHT22;7459;53.590;10.062;2024-03-23T13:22:06;6.90;99.90
14737;DHT22;7459;53.590;10.062;2024-03-23T13:24:32;7.00;99.90
14737;DHT22;7459;53.590;10.062;2024-03-23T13:26:58;7.10;99.90
14737;DHT22;7459;53.590;10.062;2024-03-23T13:29:24;7.20;99.90
14737;DHT22;7459;53.590;10.062;2024-03-23T13:31:52;7.20;99.90
14737;DHT22;7459;53.590;10.062;2024-03-23T13:34:19;7.30;99.90
14737;DHT22;7459;53.590;10.062;2024-03-23T13:36:46;7.30;99.90
14737;DHT22;7459;53.590;10.062;2024-03-23T13:39:12;7.40;99.90
14737;DHT22;7459;53.590;10.062;2024-03-23T13:41:39;7.40;99.90
14737;DHT22;7459;53.590;10.062;2024-03-23T13:44:06;7.50;99.90
14737;DHT22;7459;53.590;10.062;2024-03-23T13:46:33;7.70;99.90
14737;DHT22;7459;53.590;10.062;2024-03-23T13:48:59;7.80;99.90
14737;DHT22;7459;53.590;10.062;2024-03-23T13:51:26;7.90;99.90
14737;DHT22;7459;53.590;10.062;2024-03-23T13:53:55;8.10;99.90
14737;DHT22;7459;53.590;10.062;2024-03-23T13:56:25;8.20;99.90
14737;DHT22;7459;53.590;10.062;2024-03-23T13:58:51;8.30;99.90
14737;DHT22;7459;53.590;10.062;2024-03-23T14:01:17;8.40;99.90
14737;DHT22;7459;53.590;10.062;2024-03-23T14:03:43;8.40;99.90
14737;DHT22;7459;53.590;10.062;2024-03-23T14:06:10;8.50;99.90
14737;DHT22;7459;53.590;10.062;2024-03-23T14:08:36;8.50;99.90
14737;DHT22;7459;53.590;10.062;2024-03-23T14:11:11;8.50;99.90
14737;DHT22;7459;53.590;10.062;2024-03-23T14:13:37;8.50;99.90
14737;DHT22;7459;53.590;10.062;2024-03-23T14:16:03;8.60;99.90
14737;DHT22;7459;53.590;10.062;2024-03-23T14:18:29;8.70;99.90
14737;DHT22;7459;53.590;10.062;2024-03-23T14:20:59;8.70;99.90
14737;DHT22;7459;53.590;10.062;2024-03-23T14:23:26;8.80;99.90
14737;DHT22;7459;53.590;10.062;2024-03-23T14:25:54;8.80;99.90
14737;DHT22;7459;53.590;10.062;2024-03-23T14:28:20;8.90;99.90
14737;DHT22;7459;53.590;10.062;2024-03-23T14:30:47;9.00;99.90
14737;DHT22;7459;53.590;10.062;2024-03-23T14:33:12;9.00;99.90
14737;DHT22;7459;53.590;10.062;2024-03-23T14:35:38;9.10;99.90
14737;DHT22;7459;53.590;10.062;2024-03-23T14:38:05;9.20;99.90
14737;DHT22;7459;53.590;10.062;2024-03-23T14:40:30;9.10;99.90
14737;DHT22;7459;53.590;10.062;2024-03-23T14:42:56;9.10;99.90
14737;DHT22;7459;53.590;10.062;2024-03-23T14:45:22;9.00;99.90
14737;DHT22;7459;53.590;10.062;2024-03-23T14:47:50;9.00;99.90
14737;DHT22;7459;53.590;10.062;2024-03-23T14:50:16;9.00;99.90
14737;DHT22;7459;53.590;10.062;2024-03-23T14:52:44;9.00;99.90
14737;DHT22;7459;53.590;10.062;2024-03-23T14:55:11;8.90;99.90
14737;DHT22;7459;53.590;10.062;2024-03-23T14:57:37;8.90;99.90
14737;DHT22;7459;53.590;10.062;2024-03-23T15:00:06;8.80;99.90
14737;DHT22;7459;53.590;10.062;2024-03-23T15:02:38;8.70;99.90
14737;DHT22;7459;53.590;10.062;2024-03-23T15:05:04;8.60;99.90
14737;DHT22;7459;53.590;10.062;2024-03-23T15:07:33;8.40;99.90
14737;DHT22;7459;53.590;10.062;2024-03-23T15:09:59;8.20;99.90
14737;DHT22;7459;53.590;10.062;2024-03-23T15:12:24;8.10;99.90
14737;DHT22;7459;53.590;10.062;2024-03-23T15:14:50;8.00;99.90
14737;DHT22;7459;53.590;10.062;2024-03-23T15:17:16;8.00;99.90
14737;DHT22;7459;53.590;10.062;2024-03-23T15:19:42;8.00;99.90
14737;DHT22;7459;53.590;10.062;2024-03-23T15:22:08;7.90;99.90
14737;DHT22;7459;53.590;10.062;2024-03-23T15:24:34;7.90;99.90
14737;DHT22;7459;53.590;10.062;2024-03-23T15:27:02;7.90;99.90
14737;DHT22;7459;53.590;10.062;2024-03-23T15:29:28;8.10;99.90
14737;DHT22;7459;53.590;10.062;2024-03-23T15:31:54;8.20;99.90
14737;DHT22;7459;53.590;10.062;2024-03-23T15:34:19;8.30;99.90
14737;DHT22;7459;53.590;10.062;2024-03-23T15:36:49;8.40;99.90
14737;DHT22;7459;53.590;10.062;2024-03-23T15:39:18;8.50;99.90
14737;DHT22;7459;53.590;10.062;2024-03-23T15:41:45;8.50;99.90
14737;DHT22;7459;53.590;10.062;2024-03-23T15:44:11;8.70;99.90
14737;DHT22;7459;53.590;10.062;2024-03-23T15:46:37;8.70;99.90
14737;DHT22;7459;53.590;10.062;2024-03-23T15:49:03;8.80;99.90
14737;DHT22;7459;53.590;10.062;2024-03-23T15:51:29;8.70;99.90
14737;DHT22;7459;53.590;10.062;2024-03-23T15:53:59;8.70;99.90
14737;DHT22;7459;53.590;10.062;2024-03-23T15:56:25;8.60;99.90
14737;DHT22;7459;53.590;10.062;2024-03-23T15:58:50;8.60;99.90
14737;DHT22;7459;53.590;10.062;2024-03-23T16:01:16;8.60;99.90
14737;DHT22;7459;53.590;10.062;2024-03-23T16:03:42;8.60;99.90
14737;DHT22;7459;53.590;10.062;2024-03-23T16:06:08;8.50;99.90
14737;DHT22;7459;53.590;10.062;2024-03-23T16:08:34;8.50;99.90
14737;DHT22;7459;53.590;10.062;2024-03-23T16:11:06;8.40;99.90
14737;DHT22;7459;53.590;10.062;2024-03-23T16:13:33;8.30;99.90
14737;DHT22;7459;53.590;10.062;2024-03-23T16:16:03;8.30;99.90
14737;DHT22;7459;53.590;10.062;2024-03-23T16:18:34;8.40;99.90
14737;DHT22;7459;53.590;10.062;2024-03-23T16:21:04;8.40;99.90
14737;DHT22;7459;53.590;10.062;2024-03-23T16:23:35;8.30;99.90
14737;DHT22;7459;53.590;10.062;2024-03-23T16:26:04;8.40;99.90
14737;DHT22;7459;53.590;10.062;2024-03-23T16:28:31;8.30;99.90
14737;DHT22;7459;53.590;10.062;2024-03-23T16:31:02;8.30;99.90
14737;DHT22;7459;53.590;10.062;2024-03-23T16:33:32;8.10;99.90
14737;DHT22;7459;53.590;10.062;2024-03-23T16:36:09;8.20;99.90
14737;DHT22;7459;53.590;10.062;2024-03-23T16:38:37;8.20;99.90
14737;DHT22;7459;53.590;10.062;2024-03-23T16:41:05;7.90;99.90
14737;DHT22;7459;53.590;10.062;2024-03-23T16:43:35;7.70;99.90
14737;DHT22;7459;53.590;10.062;2024-03-23T16:48:33;7.40;99.90